createdAt,value
2023-02-26T00:00:34.976Z,93420.09
2023-02-26T00:02:36.811Z,93430.41
2023-02-26T00:04:38.500Z,93430.00
2023-02-26T00:06:53.823Z,93442.72
2023-02-26T00:08:59.847Z,93422.47
2023-02-26T00:11:04.304Z,93436.50
2023-02-26T00:13:06.356Z,93424.94
2023-02-26T00:15:08.991Z,93413.97
2023-02-26T00:17:17.894Z,93391.09
2023-02-26T00:19:20.279Z,93387.28
2023-02-26T00:21:23.322Z,93428.47
2023-02-26T00:23:25.154Z,93406.78
2023-02-26T00:25:26.813Z,93376.75
2023-02-26T00:27:28.370Z,93407.19
2023-02-26T00:29:30.248Z,93415.03
2023-02-26T00:31:32.440Z,93406.31
2023-02-26T00:33:34.503Z,93392.91
2023-02-26T00:35:36.445Z,93390.34
2023-02-26T00:37:59.028Z,93390.34
2023-02-26T00:40:15.210Z,93386.50
2023-02-26T00:42:17.007Z,93387.09
2023-02-26T00:44:18.933Z,93385.91
2023-02-26T00:46:43.066Z,93375.28
2023-02-26T00:49:12.404Z,93398.84
2023-02-26T00:51:52.523Z,93367.06
2023-02-26T00:54:09.067Z,93394.97
2023-02-26T00:56:10.640Z,93374.91
2023-02-26T00:58:12.240Z,93380.31
2023-02-26T01:00:14.486Z,93401.41
2023-02-26T01:02:16.188Z,93385.00
2023-02-26T01:04:20.846Z,93408.97
2023-02-26T01:06:26.660Z,93425.25
2023-02-26T01:08:33.224Z,93388.75
2023-02-26T01:10:35.178Z,93369.72
2023-02-26T01:12:37.389Z,93371.13
2023-02-26T01:14:39.952Z,93375.38
2023-02-26T01:16:52.192Z,93363.47
2023-02-26T01:19:13.594Z,93349.50
2023-02-26T01:21:19.476Z,93344.75
2023-02-26T01:23:31.515Z,93348.03
2023-02-26T01:25:45.568Z,93341.09
2023-02-26T01:27:47.410Z,93348.44
2023-02-26T01:29:49.202Z,93332.88
2023-02-26T01:32:08.139Z,93349.16
2023-02-26T01:34:17.839Z,93325.63
2023-02-26T01:36:28.654Z,93351.53
2023-02-26T01:38:35.118Z,93323.88
2023-02-26T01:40:58.481Z,93295.63
2023-02-26T01:43:07.648Z,93327.81
2023-02-26T01:45:16.706Z,93328.81
2023-02-26T01:47:46.743Z,93330.94
2023-02-26T01:49:48.759Z,93322.47
2023-02-26T01:51:51.720Z,93313.09
2023-02-26T01:53:53.323Z,93331.31
2023-02-26T01:56:01.370Z,93307.41
2023-02-26T01:58:03.699Z,93313.22
2023-02-26T02:00:06.345Z,93290.59
2023-02-26T02:02:10.267Z,93306.88
2023-02-26T02:04:14.671Z,93306.66
2023-02-26T02:06:27.232Z,93290.22
2023-02-26T02:08:29.368Z,93326.72
2023-02-26T02:10:31.157Z,93304.88
2023-02-26T02:12:45.800Z,93298.97
2023-02-26T02:14:50.096Z,93266.50
2023-02-26T02:17:09.593Z,93278.34
2023-02-26T02:19:33.040Z,93277.03
2023-02-26T02:22:03.225Z,93284.09
2023-02-26T02:24:11.825Z,93268.66
2023-02-26T02:26:32.223Z,93235.06
2023-02-26T02:28:45.601Z,93279.22
2023-02-26T02:31:11.739Z,93271.50
2023-02-26T02:33:16.078Z,93286.06
2023-02-26T02:35:17.586Z,93301.44
2023-02-26T02:37:29.617Z,93291.41
2023-02-26T02:39:32.726Z,93277.19
2023-02-26T02:41:46.306Z,93277.56
2023-02-26T02:43:49.622Z,93277.38
2023-02-26T02:45:59.211Z,93298.25
2023-02-26T02:48:06.634Z,93298.84
2023-02-26T02:50:13.787Z,93280.84
2023-02-26T02:52:31.862Z,93303.31
2023-02-26T02:54:46.677Z,93337.56
2023-02-26T02:56:56.493Z,93312.84
2023-02-26T02:59:05.978Z,93290.75
2023-02-26T03:01:11.347Z,93282.03
2023-02-26T03:03:21.074Z,93306.41
2023-02-26T03:05:22.658Z,93318.13
2023-02-26T03:07:24.340Z,93303.13
2023-02-26T03:09:26.040Z,93325.53
2023-02-26T03:11:27.743Z,93307.31
2023-02-26T03:13:29.309Z,93327.50
2023-02-26T03:15:35.920Z,93310.69
2023-02-26T03:18:10.243Z,93301.97
2023-02-26T03:20:28.189Z,93315.50
2023-02-26T03:22:43.713Z,93326.63
2023-02-26T03:24:56.150Z,93290.00
2023-02-26T03:27:05.549Z,93313.84
2023-02-26T03:29:10.233Z,93322.75
2023-02-26T03:31:36.735Z,93310.75
2023-02-26T03:34:04.926Z,93319.13
2023-02-26T03:36:19.045Z,93291.06
2023-02-26T03:38:31.879Z,93328.31
2023-02-26T03:40:54.615Z,93315.50
2023-02-26T03:43:07.498Z,93305.22
2023-02-26T03:45:15.956Z,93303.97
2023-02-26T03:47:17.730Z,93297.97
2023-02-26T03:49:24.474Z,93319.06
2023-02-26T03:51:27.010Z,93311.91
2023-02-26T03:53:32.249Z,93286.88
2023-02-26T03:55:38.549Z,93290.69
2023-02-26T03:57:40.225Z,93296.38
2023-02-26T03:59:42.156Z,93283.38
2023-02-26T04:02:05.885Z,93284.78
2023-02-26T04:04:27.376Z,93291.84
2023-02-26T04:06:29.631Z,93290.56
2023-02-26T04:08:31.406Z,93288.00
2023-02-26T04:10:45.216Z,93281.28
2023-02-26T04:12:46.821Z,93280.63
2023-02-26T04:14:48.418Z,93314.06
2023-02-26T04:16:50.070Z,93276.81
2023-02-26T04:18:51.708Z,93301.25
2023-02-26T04:20:53.289Z,93309.16
2023-02-26T04:22:54.909Z,93300.91
2023-02-26T04:24:56.487Z,93283.66
2023-02-26T04:26:58.111Z,93248.84
2023-02-26T04:28:59.689Z,93282.41
2023-02-26T04:31:01.362Z,93255.50
2023-02-26T04:33:03.190Z,93241.03
2023-02-26T04:35:05.079Z,93246.50
2023-02-26T04:37:06.651Z,93247.53
2023-02-26T04:39:10.788Z,93243.47
2023-02-26T04:41:12.434Z,93263.34
2023-02-26T04:43:14.350Z,93234.00
2023-02-26T04:45:15.997Z,93240.09
2023-02-26T04:47:17.585Z,93237.22
2023-02-26T04:49:19.164Z,93233.94
2023-02-26T04:51:21.175Z,93204.44
2023-02-26T04:53:22.783Z,93242.66
2023-02-26T04:55:24.407Z,93212.59
2023-02-26T04:57:26.063Z,93253.56
2023-02-26T04:59:27.656Z,93221.59
2023-02-26T05:01:29.370Z,93234.75
2023-02-26T05:03:31.026Z,93210.03
2023-02-26T05:05:32.905Z,93189.09
2023-02-26T05:07:34.513Z,93210.16
2023-02-26T05:09:36.129Z,93202.44
2023-02-26T05:11:37.824Z,93180.78
2023-02-26T05:13:39.664Z,93180.66
2023-02-26T05:15:41.356Z,93193.50
2023-02-26T05:17:43.127Z,93174.28
2023-02-26T05:19:44.711Z,93191.03
2023-02-26T05:21:46.359Z,93197.59
2023-02-26T05:23:48.093Z,93183.34
2023-02-26T05:25:49.694Z,93174.06
2023-02-26T05:27:51.363Z,93169.88
2023-02-26T05:29:52.981Z,93166.22
2023-02-26T05:31:54.756Z,93169.88
2023-02-26T05:33:56.413Z,93144.31
2023-02-26T05:35:58.130Z,93165.50
2023-02-26T05:38:00.133Z,93160.63
2023-02-26T05:40:01.688Z,93166.47
2023-02-26T05:42:03.348Z,93167.28
2023-02-26T05:44:05.002Z,93170.41
2023-02-26T05:46:06.728Z,93150.50
2023-02-26T05:48:08.373Z,93169.81
2023-02-26T05:50:10.723Z,93177.28
2023-02-26T05:52:12.325Z,93151.97
2023-02-26T05:54:13.877Z,93164.09
2023-02-26T05:56:17.747Z,93171.94
2023-02-26T05:58:19.587Z,93173.56
2023-02-26T06:00:21.421Z,93133.38
2023-02-26T06:02:23.126Z,93182.44
2023-02-26T06:04:24.659Z,93160.53
2023-02-26T06:06:27.187Z,93164.06
2023-02-26T06:08:28.910Z,93149.13
2023-02-26T06:10:30.469Z,93173.34
2023-02-26T06:12:32.128Z,93198.69
2023-02-26T06:14:34.438Z,93198.63
2023-02-26T06:16:36.182Z,93190.63
2023-02-26T06:18:37.790Z,93215.31
2023-02-26T06:20:39.363Z,93193.84
2023-02-26T06:22:40.992Z,93193.88
2023-02-26T06:24:42.642Z,93197.56
2023-02-26T06:26:44.507Z,93235.72
2023-02-26T06:28:46.156Z,93199.75
2023-02-26T06:30:47.890Z,93196.38
2023-02-26T06:32:50.024Z,93191.53
2023-02-26T06:34:51.725Z,93189.69
2023-02-26T06:36:53.314Z,93249.03
2023-02-26T06:38:55.011Z,93193.41
2023-02-26T06:40:56.902Z,93216.94
2023-02-26T06:42:58.617Z,93194.22
2023-02-26T06:45:00.227Z,93197.22
2023-02-26T06:47:01.876Z,93190.03
2023-02-26T06:49:03.719Z,93191.84
2023-02-26T06:51:07.394Z,93191.75
2023-02-26T06:53:09.313Z,93108.69
2023-02-26T06:55:11.336Z,93146.78
2023-02-26T06:57:12.922Z,93165.59
2023-02-26T06:59:15.462Z,93164.56
2023-02-26T07:01:17.438Z,93193.16
2023-02-26T07:03:19.119Z,93202.53
2023-02-26T07:05:21.254Z,93161.47
2023-02-26T07:07:23.249Z,93160.81
2023-02-26T07:09:24.998Z,93220.03
2023-02-26T07:11:26.681Z,93155.63
2023-02-26T07:13:28.574Z,93156.13
2023-02-26T07:15:30.426Z,93204.19
2023-02-26T07:17:32.405Z,93179.75
2023-02-26T07:19:33.966Z,93194.81
2023-02-26T07:21:35.596Z,93188.63
2023-02-26T07:23:37.230Z,93201.03
2023-02-26T07:25:38.803Z,93200.84
2023-02-26T07:27:42.206Z,93191.53
2023-02-26T07:29:45.215Z,93197.97
2023-02-26T07:31:46.863Z,93144.72
2023-02-26T07:33:48.633Z,93172.38
2023-02-26T07:35:50.209Z,93157.91
2023-02-26T07:37:52.341Z,93183.97
2023-02-26T07:39:53.940Z,93174.88
2023-02-26T07:41:55.620Z,93199.94
2023-02-26T07:43:57.184Z,93214.53
2023-02-26T07:45:58.888Z,93220.72
2023-02-26T07:48:00.677Z,93175.34
2023-02-26T07:50:02.356Z,93198.00
2023-02-26T07:52:04.267Z,93174.78
2023-02-26T07:54:05.888Z,93186.72
2023-02-26T07:56:07.617Z,93217.53
2023-02-26T07:58:09.316Z,93171.31
2023-02-26T08:00:11.510Z,93204.97
2023-02-26T08:02:13.740Z,93197.97
2023-02-26T08:04:15.677Z,93197.41
2023-02-26T08:06:17.336Z,93157.63
2023-02-26T08:08:18.944Z,93160.63
2023-02-26T08:10:20.717Z,93172.91
2023-02-26T08:12:22.301Z,93174.63
2023-02-26T08:14:23.912Z,93209.47
2023-02-26T08:16:25.924Z,93205.78
2023-02-26T08:18:27.751Z,93182.31
2023-02-26T08:20:29.365Z,93203.38
2023-02-26T08:22:31.094Z,93171.88
2023-02-26T08:24:32.736Z,93217.94
2023-02-26T08:26:37.792Z,93205.66
2023-02-26T08:28:39.812Z,93187.63
2023-02-26T08:30:41.442Z,93194.06
2023-02-26T08:32:43.195Z,93229.94
2023-02-26T08:34:44.920Z,93215.22
2023-02-26T08:36:46.586Z,93217.38
2023-02-26T08:38:48.376Z,93208.75
2023-02-26T08:40:50.375Z,93234.34
2023-02-26T08:42:52.608Z,93268.41
2023-02-26T08:44:54.314Z,93250.47
2023-02-26T08:46:56.556Z,93248.53
2023-02-26T08:48:58.271Z,93225.50
2023-02-26T08:50:59.858Z,93236.56
2023-02-26T08:53:01.440Z,93254.28
2023-02-26T08:55:04.252Z,93228.16
2023-02-26T08:57:05.886Z,93218.84
2023-02-26T08:59:10.122Z,93235.09
2023-02-26T09:01:11.765Z,93240.34
2023-02-26T09:03:13.920Z,93223.31
2023-02-26T09:05:15.974Z,93234.38
2023-02-26T09:07:17.590Z,93229.06
2023-02-26T09:09:19.525Z,93225.47
2023-02-26T09:11:21.109Z,93255.44
2023-02-26T09:13:22.877Z,93256.78
2023-02-26T09:15:24.567Z,93259.81
2023-02-26T09:17:26.238Z,93256.47
2023-02-26T09:19:27.887Z,93246.09
2023-02-26T09:21:30.177Z,93264.72
2023-02-26T09:23:31.782Z,93238.13
2023-02-26T09:25:33.308Z,93256.47
2023-02-26T09:27:35.771Z,93249.09
2023-02-26T09:29:38.058Z,93261.94
2023-02-26T09:31:39.900Z,93270.94
2023-02-26T09:33:41.760Z,93270.13
2023-02-26T09:35:43.392Z,93269.78
2023-02-26T09:37:45.044Z,93278.94
2023-02-26T09:39:46.692Z,93257.75
2023-02-26T09:41:51.748Z,93283.44
2023-02-26T09:44:15.109Z,93272.69
2023-02-26T09:46:38.198Z,93294.94
2023-02-26T09:48:40.463Z,93295.41
2023-02-26T09:50:53.441Z,93281.38
2023-02-26T09:53:16.855Z,93291.16
2023-02-26T09:55:28.087Z,93295.41
2023-02-26T09:57:33.413Z,93279.19
2023-02-26T09:59:35.067Z,93261.41
2023-02-26T10:02:01.976Z,93282.75
2023-02-26T10:04:20.631Z,93278.75
2023-02-26T10:06:31.606Z,93277.41
2023-02-26T10:08:38.854Z,93245.88
2023-02-26T10:11:24.860Z,93237.75
2023-02-26T10:13:56.204Z,93273.63
2023-02-26T10:16:08.613Z,93238.84
2023-02-26T10:18:11.973Z,93250.72
2023-02-26T10:20:55.613Z,93225.13
2023-02-26T10:23:15.279Z,93224.50
2023-02-26T10:25:21.144Z,93228.69
2023-02-26T10:27:44.915Z,93210.47
2023-02-26T10:30:03.293Z,93207.47
2023-02-26T10:32:28.911Z,93236.19
2023-02-26T10:34:38.228Z,93228.63
2023-02-26T10:36:59.006Z,93191.81
2023-02-26T10:39:16.357Z,93189.28
2023-02-26T10:41:22.115Z,93214.84
2023-02-26T10:43:37.711Z,93203.81
2023-02-26T10:46:09.746Z,93185.47
2023-02-26T10:48:26.396Z,93191.66
2023-02-26T10:50:28.356Z,93196.31
2023-02-26T10:52:33.416Z,93213.66
2023-02-26T10:54:37.590Z,93224.66
2023-02-26T10:56:39.125Z,93191.34
2023-02-26T10:58:40.772Z,93195.69
2023-02-26T11:00:44.907Z,93188.22
2023-02-26T11:02:48.674Z,93199.78
2023-02-26T11:04:59.221Z,93177.63
2023-02-26T11:07:07.928Z,93198.97
2023-02-26T11:09:38.031Z,93183.38
2023-02-26T11:11:41.398Z,93178.28
2023-02-26T11:13:42.973Z,93161.59
2023-02-26T11:15:48.522Z,93168.94
2023-02-26T11:17:54.634Z,93175.03
2023-02-26T11:19:58.232Z,93176.78
2023-02-26T11:22:00.413Z,93195.19
2023-02-26T11:24:05.184Z,93146.94
2023-02-26T11:26:08.606Z,93140.41
2023-02-26T11:28:23.419Z,93181.25
2023-02-26T11:30:27.125Z,93163.25
2023-02-26T11:32:33.169Z,93163.19
2023-02-26T11:34:36.616Z,93154.63
2023-02-26T11:36:41.014Z,93166.78
2023-02-26T11:38:46.603Z,93159.34
2023-02-26T11:40:52.206Z,93141.91
2023-02-26T11:42:59.732Z,93170.50
2023-02-26T11:45:01.361Z,93164.88
2023-02-26T11:47:15.319Z,93197.06
2023-02-26T11:49:18.967Z,93208.63
2023-02-26T11:51:24.342Z,93219.69
2023-02-26T11:53:32.438Z,93197.94
2023-02-26T11:55:40.025Z,93226.16
2023-02-26T11:57:42.958Z,93231.06
2023-02-26T11:59:49.089Z,93249.78
2023-02-26T12:01:51.947Z,93262.66
2023-02-26T12:03:53.835Z,93266.06
2023-02-26T12:05:57.201Z,93278.16
2023-02-26T12:07:58.975Z,93261.06
2023-02-26T12:10:00.606Z,93323.09
2023-02-26T12:12:10.978Z,93273.91
2023-02-26T12:14:31.984Z,93289.56
2023-02-26T12:16:45.843Z,93300.94
2023-02-26T12:18:51.775Z,93300.81
2023-02-26T12:21:10.451Z,93289.09
2023-02-26T12:23:14.761Z,93294.06
2023-02-26T12:25:32.900Z,93287.06
2023-02-26T12:28:00.473Z,93291.19
2023-02-26T12:30:31.457Z,93305.31
2023-02-26T12:32:57.903Z,93307.50
2023-02-26T12:35:05.347Z,93325.91
2023-02-26T12:37:32.516Z,93327.63
2023-02-26T12:39:45.847Z,93332.09
2023-02-26T12:42:10.587Z,93339.69
2023-02-26T12:44:44.439Z,93343.69
2023-02-26T12:46:51.960Z,93353.88
2023-02-26T12:49:17.485Z,93349.56
2023-02-26T12:51:19.037Z,93354.88
2023-02-26T12:53:29.695Z,93372.19
2023-02-26T12:56:25.426Z,93377.41
2023-02-26T12:59:01.051Z,93340.81
2023-02-26T13:01:33.772Z,93320.59
2023-02-26T13:03:59.953Z,93332.56
2023-02-26T13:06:38.427Z,93341.75
2023-02-26T13:08:48.836Z,93347.72
2023-02-26T13:10:57.130Z,93343.69
2023-02-26T13:13:30.546Z,93360.84
2023-02-26T13:16:02.655Z,93380.19
2023-02-26T13:18:13.672Z,93376.97
2023-02-26T13:20:24.332Z,93364.19
2023-02-26T13:22:32.596Z,93369.72
2023-02-26T13:24:44.600Z,93361.78
2023-02-26T13:26:47.632Z,93357.31
2023-02-26T13:29:15.583Z,93349.03
2023-02-26T13:31:31.340Z,93354.84
2023-02-26T13:33:34.828Z,93344.13
2023-02-26T13:35:42.046Z,93343.91
2023-02-26T13:37:48.274Z,93350.34
2023-02-26T13:40:02.225Z,93337.91
2023-02-26T13:42:40.917Z,93324.75
2023-02-26T13:45:16.726Z,93340.16
2023-02-26T13:47:42.986Z,93331.25
2023-02-26T13:50:19.626Z,93356.72
2023-02-26T13:52:29.715Z,93298.34
2023-02-26T13:54:43.206Z,93334.19
2023-02-26T13:56:50.149Z,93314.06
2023-02-26T13:59:04.262Z,93317.97
2023-02-26T14:01:08.755Z,93313.16
2023-02-26T14:03:11.222Z,93289.22
2023-02-26T14:05:33.162Z,93312.00
2023-02-26T14:08:08.543Z,93315.66
2023-02-26T14:10:25.377Z,93334.25
2023-02-26T14:12:38.211Z,93312.72
2023-02-26T14:14:40.124Z,93326.00
2023-02-26T14:16:44.944Z,93318.72
2023-02-26T14:18:46.493Z,93318.16
2023-02-26T14:20:48.037Z,93310.28
2023-02-26T14:23:14.480Z,93323.84
2023-02-26T14:25:18.972Z,93294.16
2023-02-26T14:27:20.531Z,93323.03
2023-02-26T14:29:26.365Z,93330.69
2023-02-26T14:31:48.454Z,93339.00
2023-02-26T14:34:14.191Z,93305.88
2023-02-26T14:36:36.270Z,93351.50
2023-02-26T14:38:38.901Z,93335.53
2023-02-26T14:40:46.652Z,93332.78
2023-02-26T14:42:59.837Z,93347.09
2023-02-26T14:45:23.515Z,93381.28
2023-02-26T14:47:27.673Z,93319.78
2023-02-26T14:49:40.567Z,93306.88
2023-02-26T14:51:51.851Z,93364.59
2023-02-26T14:54:23.799Z,93335.09
2023-02-26T14:56:28.396Z,93347.03
2023-02-26T14:58:35.134Z,93382.22
2023-02-26T15:00:39.879Z,93349.34
2023-02-26T15:02:56.839Z,93375.63
2023-02-26T15:04:58.401Z,93361.38
2023-02-26T15:07:25.071Z,93355.75
2023-02-26T15:09:51.275Z,93350.56
2023-02-26T15:11:55.589Z,93365.84
2023-02-26T15:14:06.001Z,93366.31
2023-02-26T15:16:58.354Z,93365.75
2023-02-26T15:19:14.550Z,93352.63
2023-02-26T15:21:19.589Z,93387.47
2023-02-26T15:23:43.310Z,93415.41
2023-02-26T15:25:47.537Z,93374.16
2023-02-26T15:27:49.329Z,93373.56
2023-02-26T15:29:53.140Z,93384.94
2023-02-26T15:32:01.414Z,93374.47
2023-02-26T15:34:03.740Z,93391.69
2023-02-26T15:36:08.855Z,93417.06
2023-02-26T15:38:10.544Z,93395.50
2023-02-26T15:40:14.906Z,93405.69
2023-02-26T15:42:17.568Z,93402.19
2023-02-26T15:44:26.029Z,93425.75
2023-02-26T15:46:31.616Z,93418.13
2023-02-26T15:48:38.084Z,93429.88
2023-02-26T15:50:43.069Z,93444.25
2023-02-26T15:52:45.135Z,93436.53
2023-02-26T15:55:14.028Z,93442.53
2023-02-26T15:57:16.366Z,93428.41
2023-02-26T15:59:21.267Z,93438.97
2023-02-26T16:01:25.304Z,93456.03
2023-02-26T16:03:37.937Z,93446.50
2023-02-26T16:05:41.440Z,93434.09
2023-02-26T16:07:43.128Z,93439.38
2023-02-26T16:09:47.155Z,93441.22
2023-02-26T16:11:49.493Z,93455.69
2023-02-26T16:13:52.320Z,93443.81
2023-02-26T16:15:54.011Z,93470.00
2023-02-26T16:17:56.397Z,93456.88
2023-02-26T16:19:59.706Z,93466.19
2023-02-26T16:22:07.199Z,93465.59
2023-02-26T16:24:15.448Z,93457.75
2023-02-26T16:26:22.416Z,93470.09
2023-02-26T16:28:35.288Z,93459.38
2023-02-26T16:30:38.827Z,93478.47
2023-02-26T16:32:40.678Z,93462.13
2023-02-26T16:35:12.469Z,93457.03
2023-02-26T16:37:29.043Z,93455.56
2023-02-26T16:39:31.622Z,93472.34
2023-02-26T16:41:39.331Z,93471.47
2023-02-26T16:43:47.777Z,93484.47
2023-02-26T16:45:57.114Z,93498.69
2023-02-26T16:47:59.620Z,93488.78
2023-02-26T16:50:02.116Z,93503.75
2023-02-26T16:52:04.297Z,93476.75
2023-02-26T16:54:19.506Z,93498.09
2023-02-26T16:56:25.510Z,93485.75
2023-02-26T16:58:27.382Z,93490.13
2023-02-26T17:00:31.225Z,93497.63
2023-02-26T17:02:35.456Z,93496.25
2023-02-26T17:04:37.472Z,93497.19
2023-02-26T17:06:40.038Z,93504.97
2023-02-26T17:09:12.589Z,93523.16
2023-02-26T17:11:30.480Z,93511.31
2023-02-26T17:13:33.557Z,93520.41
2023-02-26T17:15:37.070Z,93501.41
2023-02-26T17:17:38.607Z,93495.41
2023-02-26T17:19:40.271Z,93527.22
2023-02-26T17:21:44.912Z,93509.00
2023-02-26T17:23:46.700Z,93504.66
2023-02-26T17:25:50.882Z,93520.53
2023-02-26T17:27:53.878Z,93534.91
2023-02-26T17:29:55.540Z,93491.16
2023-02-26T17:31:57.293Z,93519.38
2023-02-26T17:33:59.044Z,93514.44
2023-02-26T17:36:02.425Z,93519.06
2023-02-26T17:38:04.550Z,93511.00
2023-02-26T17:40:18.605Z,93524.16
2023-02-26T17:42:21.510Z,93517.56
2023-02-26T17:44:24.506Z,93509.41
2023-02-26T17:46:27.126Z,93532.28
2023-02-26T17:48:28.786Z,93502.47
2023-02-26T17:50:39.362Z,93509.78
2023-02-26T17:52:40.918Z,93526.69
2023-02-26T17:54:42.782Z,93527.72
2023-02-26T17:56:45.092Z,93524.75
2023-02-26T17:58:46.709Z,93542.19
2023-02-26T18:00:53.144Z,93519.19
2023-02-26T18:02:54.893Z,93512.59
2023-02-26T18:04:56.512Z,93532.59
2023-02-26T18:06:58.533Z,93548.19
2023-02-26T18:09:00.677Z,93533.59
2023-02-26T18:11:02.618Z,93540.34
2023-02-26T18:13:04.307Z,93533.09
2023-02-26T18:15:06.434Z,93517.94
2023-02-26T18:17:15.404Z,93526.03
2023-02-26T18:19:17.055Z,93505.75
2023-02-26T18:21:20.430Z,93522.03
2023-02-26T18:23:22.098Z,93539.84
2023-02-26T18:25:23.687Z,93554.19
2023-02-26T18:27:26.449Z,93561.03
2023-02-26T18:29:28.020Z,93533.50
2023-02-26T18:31:34.752Z,93533.34
2023-02-26T18:33:38.711Z,93528.06
2023-02-26T18:35:45.911Z,93523.19
2023-02-26T18:37:47.532Z,93533.31
2023-02-26T18:39:49.699Z,93551.78
2023-02-26T18:41:51.275Z,93565.75
2023-02-26T18:43:52.902Z,93571.22
2023-02-26T18:45:55.698Z,93577.69
2023-02-26T18:47:57.365Z,93574.66
2023-02-26T18:49:59.020Z,93577.47
2023-02-26T18:52:00.767Z,93577.84
2023-02-26T18:54:02.419Z,93567.09
2023-02-26T18:56:04.257Z,93586.97
2023-02-26T18:58:05.902Z,93590.03
2023-02-26T19:00:09.246Z,93594.16
2023-02-26T19:02:13.785Z,93600.25
2023-02-26T19:04:15.480Z,93607.75
2023-02-26T19:06:17.812Z,93603.69
2023-02-26T19:08:19.373Z,93602.25
2023-02-26T19:10:21.376Z,93614.78
2023-02-26T19:12:24.423Z,93621.47
2023-02-26T19:14:26.286Z,93607.88
2023-02-26T19:16:30.743Z,93613.34
2023-02-26T19:18:32.397Z,93620.84
2023-02-26T19:20:34.073Z,93614.59
2023-02-26T19:22:35.778Z,93613.94
2023-02-26T19:24:37.434Z,93612.72
2023-02-26T19:26:39.636Z,93611.72
2023-02-26T19:28:42.538Z,93625.56
2023-02-26T19:30:44.174Z,93636.09
2023-02-26T19:32:45.831Z,93638.72
2023-02-26T19:34:47.534Z,93634.25
2023-02-26T19:36:49.422Z,93632.22
2023-02-26T19:38:51.308Z,93642.38
2023-02-26T19:40:53.017Z,93642.38
2023-02-26T19:42:54.600Z,93645.81
2023-02-26T19:44:56.244Z,93636.50
2023-02-26T19:46:58.476Z,93639.34
2023-02-26T19:49:00.077Z,93638.94
2023-02-26T19:51:03.148Z,93648.88
2023-02-26T19:53:05.005Z,93645.63
2023-02-26T19:55:08.258Z,93647.47
2023-02-26T19:57:09.996Z,93658.00
2023-02-26T19:59:12.525Z,93664.31
2023-02-26T20:01:14.148Z,93659.25
2023-02-26T20:03:15.758Z,93656.63
2023-02-26T20:05:18.263Z,93661.47
2023-02-26T20:07:19.932Z,93669.81
2023-02-26T20:09:23.017Z,93676.31
2023-02-26T20:11:25.049Z,93689.09
2023-02-26T20:13:30.695Z,93685.25
2023-02-26T20:15:32.337Z,93681.81
2023-02-26T20:17:34.223Z,93666.63
2023-02-26T20:19:35.858Z,93678.16
2023-02-26T20:21:37.487Z,93677.53
2023-02-26T20:23:39.649Z,93685.25
2023-02-26T20:25:43.333Z,93687.22
2023-02-26T20:27:45.178Z,93682.34
2023-02-26T20:29:47.210Z,93698.69
2023-02-26T20:31:50.106Z,93699.91
2023-02-26T20:33:52.870Z,93697.47
2023-02-26T20:35:55.004Z,93693.63
2023-02-26T20:37:56.598Z,93691.75
2023-02-26T20:39:58.238Z,93698.84
2023-02-26T20:42:00.048Z,93709.56
2023-02-26T20:44:01.703Z,93693.25
2023-02-26T20:46:03.489Z,93687.34
2023-02-26T20:48:06.109Z,93714.03
2023-02-26T20:50:09.724Z,93716.31
2023-02-26T20:52:11.314Z,93722.56
2023-02-26T20:54:14.771Z,93721.59
2023-02-26T20:56:17.822Z,93725.44
2023-02-26T20:58:19.440Z,93714.94
2023-02-26T21:00:21.727Z,93716.41
2023-02-26T21:02:23.334Z,93725.75
2023-02-26T21:04:24.948Z,93723.31
2023-02-26T21:06:26.525Z,93727.97
2023-02-26T21:08:28.174Z,93733.22
2023-02-26T21:10:29.939Z,93734.44
2023-02-26T21:12:31.608Z,93733.03
2023-02-26T21:14:33.373Z,93739.53
2023-02-26T21:16:35.758Z,93732.25
2023-02-26T21:18:37.507Z,93733.84
2023-02-26T21:20:39.420Z,93744.38
2023-02-26T21:22:41.050Z,93742.97
2023-02-26T21:24:43.130Z,93737.09
2023-02-26T21:26:44.793Z,93738.72
2023-02-26T21:28:48.390Z,93739.34
2023-02-26T21:30:53.439Z,93742.34
2023-02-26T21:32:55.209Z,93732.66
2023-02-26T21:34:58.846Z,93727.78
2023-02-26T21:37:05.247Z,93735.66
2023-02-26T21:39:06.941Z,93730.81
2023-02-26T21:41:08.595Z,93730.00
2023-02-26T21:43:10.758Z,93733.47
2023-02-26T21:45:12.960Z,93736.88
2023-02-26T21:47:14.581Z,93745.38
2023-02-26T21:49:16.241Z,93750.84
2023-02-26T21:51:17.857Z,93756.13
2023-02-26T21:53:19.427Z,93739.34
2023-02-26T21:55:21.109Z,93752.50
2023-02-26T21:57:24.556Z,93739.09
2023-02-26T21:59:26.280Z,93736.28
2023-02-26T22:01:28.179Z,93735.88
2023-02-26T22:03:30.169Z,93729.00
2023-02-26T22:05:31.776Z,93724.72
2023-02-26T22:07:33.393Z,93750.84
2023-02-26T22:09:35.465Z,93742.34
2023-02-26T22:11:37.055Z,93725.66
2023-02-26T22:13:38.658Z,93746.66
2023-02-26T22:15:40.476Z,93756.19
2023-02-26T22:17:42.066Z,93740.22
2023-02-26T22:19:43.639Z,93742.44
2023-02-26T22:21:45.291Z,93740.63
2023-02-26T22:23:46.898Z,93737.03
2023-02-26T22:25:48.604Z,93721.53
2023-02-26T22:27:50.834Z,93744.78
2023-02-26T22:29:52.460Z,93741.38
2023-02-26T22:31:54.512Z,93746.06
2023-02-26T22:33:57.401Z,93761.84
2023-02-26T22:36:00.055Z,93772.59
2023-02-26T22:38:01.666Z,93766.59
2023-02-26T22:40:04.035Z,93770.03
2023-02-26T22:42:05.639Z,93766.13
2023-02-26T22:44:07.233Z,93752.97
2023-02-26T22:46:08.899Z,93753.97
2023-02-26T22:48:10.696Z,93753.34
2023-02-26T22:50:13.329Z,93750.31
2023-02-26T22:52:15.200Z,93749.31
2023-02-26T22:54:16.833Z,93757.88
2023-02-26T22:56:18.533Z,93768.41
2023-02-26T22:58:20.121Z,93765.38
2023-02-26T23:00:21.726Z,93760.94
2023-02-26T23:02:24.052Z,93755.78
2023-02-26T23:04:25.813Z,93758.56
2023-02-26T23:06:27.452Z,93754.94
2023-02-26T23:08:29.060Z,93767.88
2023-02-26T23:10:30.698Z,93760.41
2023-02-26T23:12:32.477Z,93754.66
2023-02-26T23:14:34.489Z,93754.06
2023-02-26T23:16:36.075Z,93755.50
2023-02-26T23:18:39.375Z,93755.34
2023-02-26T23:20:41.047Z,93744.63
2023-02-26T23:22:43.864Z,93757.56
2023-02-26T23:24:46.593Z,93771.28
2023-02-26T23:26:48.364Z,93757.34
2023-02-26T23:31:09.168Z,93758.81
2023-02-26T23:33:10.917Z,93742.59
2023-02-26T23:35:12.525Z,93757.75
2023-02-26T23:37:14.150Z,93747.25
2023-02-26T23:39:15.863Z,93753.31
2023-02-26T23:41:17.485Z,93752.50
2023-02-26T23:43:19.150Z,93753.50
2023-02-26T23:45:20.793Z,93752.50
2023-02-26T23:47:22.487Z,93762.63
2023-02-26T23:49:24.187Z,93768.09
2023-02-26T23:51:26.145Z,93760.31
2023-02-26T23:53:27.984Z,93753.38
2023-02-26T23:55:29.531Z,93758.19
2023-02-26T23:57:31.268Z,93744.25
2023-02-26T23:59:33.102Z,93733.31
